Time;durP1;ratioP1;P1;durP2;ratioP2;P2;SDS_P1;SDS_P2;PMS_P1;PMS_P2;Temp;Humidity;BMP_temperature;BMP_pressure;BME280_temperature;BME280_humidity;BME280_pressure;Samples;Min_cycle;Max_cycle;Signal;HPM_P1;HPM_P2
2022/01/23 00:00:05;;;;;;;41.33;28.30;;;6.70;99.90;;;;;;4986805;28;20212;-75
2022/01/23 00:02:36;;;;;;;44.10;28.67;;;6.60;99.90;;;;;;5008445;28;20192;-75
2022/01/23 00:05:07;;;;;;;41.03;28.03;;;6.60;99.90;;;;;;5001020;28;20571;-75
2022/01/23 00:07:34;;;;;;;40.67;27.53;;;6.70;99.90;;;;;;5005517;28;20235;-75
2022/01/23 00:10:02;;;;;;;46.50;29.07;;;6.60;99.90;;;;;;5002367;28;20554;-75
2022/01/23 00:12:33;;;;;;;41.30;27.13;;;6.60;99.90;;;;;;5005093;28;20218;-75
2022/01/23 00:17:46;;;;;;;40.83;27.17;;;6.70;99.90;;;;;;4982706;28;20224;-75
2022/01/23 00:20:14;;;;;;;35.20;25.77;;;6.60;99.90;;;;;;5001579;28;20207;-75
2022/01/23 00:22:45;;;;;;;39.47;26.43;;;6.70;99.90;;;;;;4996309;28;20212;-75
2022/01/23 00:30:47;;;;;;;37.47;25.67;;;6.60;99.90;;;;;;4993040;28;20218;-75
2022/01/23 00:33:16;;;;;;;33.60;24.17;;;6.70;99.90;;;;;;5004755;28;20667;-76
2022/01/23 00:35:47;;;;;;;36.50;25.60;;;6.60;99.90;;;;;;4994567;28;20205;-75
2022/01/23 00:38:16;;;;;;;38.20;24.53;;;6.60;99.90;;;;;;5014358;28;20234;-75
2022/01/23 00:40:45;;;;;;;37.53;24.70;;;6.70;99.90;;;;;;5000197;28;20720;-76
2022/01/23 00:43:17;;;;;;;39.33;24.20;;;6.60;99.90;;;;;;4999925;28;20204;-76
2022/01/23 00:45:50;;;;;;;34.50;24.40;;;6.70;99.90;;;;;;4998186;28;20581;-75
2022/01/23 00:48:34;;;;;;;35.93;22.80;;;6.70;99.90;;;;;;5014313;28;20223;-75
2022/01/23 00:51:04;;;;;;;37.30;23.63;;;6.70;99.90;;;;;;4999320;28;20594;-76
2022/01/23 00:53:32;;;;;;;38.07;24.93;;;6.80;99.90;;;;;;4985257;28;20205;-76
2022/01/23 00:55:59;;;;;;;37.00;23.83;;;6.70;99.90;;;;;;5000791;28;20220;-76
2022/01/23 00:58:26;;;;;;;35.13;24.20;;;6.70;99.90;;;;;;4995462;28;20230;-76
2022/01/23 01:00:56;;;;;;;38.83;24.83;;;6.60;99.90;;;;;;4994518;28;20197;-75
2022/01/23 01:03:23;;;;;;;36.43;23.13;;;6.70;99.90;;;;;;5010039;28;20203;-78
2022/01/23 01:05:51;;;;;;;37.53;24.97;;;6.70;99.90;;;;;;5002912;28;20207;-76
2022/01/23 01:08:18;;;;;;;34.90;24.20;;;6.60;99.90;;;;;;4996071;28;20566;-75
2022/01/23 01:10:55;;;;;;;35.23;24.07;;;6.60;99.90;;;;;;4994643;28;20202;-75
2022/01/23 01:13:28;;;;;;;35.70;23.77;;;6.50;99.90;;;;;;5003439;28;20198;-76
2022/01/23 01:16:13;;;;;;;35.93;23.60;;;6.60;99.90;;;;;;5003301;28;20543;-76
2022/01/23 01:32:49;;;;;;;35.07;23.90;;;6.40;99.90;;;;;;5000559;28;20207;-75
2022/01/23 01:35:22;;;;;;;35.20;23.70;;;6.40;99.90;;;;;;4998216;28;20203;-76
2022/01/23 01:37:51;;;;;;;37.47;25.63;;;6.40;99.90;;;;;;4992348;28;20226;-78
2022/01/23 01:40:29;;;;;;;36.73;25.60;;;6.50;99.90;;;;;;4995575;28;20212;-75
2022/01/23 01:42:56;;;;;;;40.07;25.33;;;6.40;99.90;;;;;;4997752;28;20692;-76
2022/01/23 01:45:26;;;;;;;36.53;25.27;;;6.50;99.90;;;;;;5007988;28;20208;-76
2022/01/23 01:48:03;;;;;;;32.50;23.50;;;6.50;99.90;;;;;;4999911;28;20223;-76
2022/01/23 01:50:33;;;;;;;37.03;25.60;;;6.40;99.90;;;;;;4997614;28;20195;-75
2022/01/23 01:53:04;;;;;;;36.03;23.97;;;6.40;99.90;;;;;;5003362;28;20696;-76
2022/01/23 01:55:40;;;;;;;33.80;23.50;;;6.50;99.90;;;;;;4994856;28;20204;-78
2022/01/23 01:58:21;;;;;;;37.90;24.37;;;6.60;99.90;;;;;;5007001;28;20593;-76
2022/01/23 02:01:10;;;;;;;36.03;24.03;;;6.60;99.90;;;;;;4994072;28;20202;-75
2022/01/23 02:09:30;;;;;;;34.47;21.93;;;6.70;99.90;;;;;;4992027;28;20197;-76
2022/01/23 02:12:16;;;;;;;37.00;24.77;;;6.70;99.90;;;;;;4987391;28;20231;-76
2022/01/23 02:14:59;;;;;;;36.20;23.87;;;6.70;99.90;;;;;;5003904;28;20208;-75
2022/01/23 02:17:51;;;;;;;35.57;24.00;;;6.80;99.90;;;;;;4997270;28;20221;-76
2022/01/23 02:23:22;;;;;;;37.57;25.03;;;6.70;99.90;;;;;;4991988;28;20200;-75
2022/01/23 02:51:04;;;;;;;37.93;25.13;;;6.50;99.90;;;;;;4997114;28;20203;-75
2022/01/23 02:54:05;;;;;;;41.90;25.93;;;6.60;99.90;;;;;;5015880;28;20211;-76
2022/01/23 02:56:44;;;;;;;38.50;24.67;;;6.60;99.90;;;;;;5017779;28;20302;-75
2022/01/23 02:59:20;;;;;;;41.57;27.17;;;6.50;99.90;;;;;;4993462;28;20204;-76
2022/01/23 03:02:00;;;;;;;37.23;25.37;;;6.50;99.90;;;;;;5004037;28;20192;-76
2022/01/23 03:04:51;;;;;;;39.67;26.47;;;6.30;99.90;;;;;;4997819;28;20700;-76
2022/01/23 03:07:51;;;;;;;37.73;25.87;;;6.30;99.90;;;;;;4999846;28;20667;-76
2022/01/23 03:10:24;;;;;;;38.87;26.83;;;6.40;99.90;;;;;;5002092;28;20204;-76
2022/01/23 03:15:59;;;;;;;39.10;26.90;;;6.50;99.90;;;;;;4992514;28;20195;-75
2022/01/23 03:24:22;;;;;;;33.87;23.60;;;6.60;99.90;;;;;;5000762;28;20218;-75
2022/01/23 03:27:01;;;;;;;33.37;22.93;;;6.50;99.90;;;;;;4994188;28;20658;-76
2022/01/23 03:29:40;;;;;;;34.60;22.53;;;6.50;99.90;;;;;;5006127;28;20199;-76
2022/01/23 03:32:23;;;;;;;31.73;21.67;;;6.40;99.90;;;;;;5011493;28;20211;-76
2022/01/23 03:34:50;;;;;;;37.27;24.40;;;6.40;99.90;;;;;;5005360;28;20200;-78
2022/01/23 03:37:18;;;;;;;35.67;22.60;;;6.40;99.90;;;;;;4990338;28;20235;-76
2022/01/23 03:39:45;;;;;;;30.93;20.90;;;6.40;99.90;;;;;;4998762;28;20201;-75
2022/01/23 03:42:14;;;;;;;35.97;21.87;;;6.50;99.90;;;;;;4986131;28;20207;-76
2022/01/23 03:44:52;;;;;;;33.30;22.13;;;6.50;99.90;;;;;;5013604;28;20189;-76
2022/01/23 03:47:33;;;;;;;33.87;22.70;;;6.40;99.90;;;;;;5015273;28;20219;-76
2022/01/23 03:50:00;;;;;;;33.83;21.83;;;6.50;99.90;;;;;;4997158;28;20199;-75
2022/01/23 03:52:40;;;;;;;33.33;21.63;;;6.40;99.90;;;;;;4995151;28;20218;-75
2022/01/23 03:55:09;;;;;;;28.97;20.17;;;6.50;99.90;;;;;;4993189;28;20195;-76
2022/01/23 03:57:39;;;;;;;27.83;18.43;;;6.40;99.90;;;;;;4999406;28;20223;-75
2022/01/23 04:00:08;;;;;;;30.10;19.23;;;6.40;99.90;;;;;;4994511;28;20200;-76
2022/01/23 04:02:41;;;;;;;29.93;19.13;;;6.40;99.90;;;;;;5008620;28;20189;-75
2022/01/23 04:05:15;;;;;;;33.13;21.17;;;6.50;99.90;;;;;;5014007;28;20200;-76
2022/01/23 04:07:42;;;;;;;33.67;21.27;;;6.40;99.90;;;;;;4999736;28;20220;-75
2022/01/23 04:10:13;;;;;;;30.03;20.47;;;6.40;99.90;;;;;;4987986;28;20207;-75
2022/01/23 04:12:49;;;;;;;37.87;22.33;;;6.40;99.90;;;;;;4999622;28;20245;-76
2022/01/23 04:15:26;;;;;;;31.43;21.50;;;6.40;99.90;;;;;;4993314;28;20206;-75
2022/01/23 04:18:44;;;;;;;30.77;20.40;;;6.40;99.90;;;;;;4994554;28;20246;-75
2022/01/23 04:21:15;;;;;;;27.13;17.90;;;6.30;99.90;;;;;;4994373;28;20553;-76
2022/01/23 04:32:15;;;;;;;24.17;16.33;;;6.20;99.90;;;;;;4987343;28;20210;-75
2022/01/23 04:35:01;;;;;;;22.93;16.57;;;6.30;99.90;;;;;;4989079;28;20199;-75
2022/01/23 04:46:10;;;;;;;26.83;17.13;;;6.50;99.90;;;;;;5006285;28;20188;-75
2022/01/23 04:59:47;;;;;;;29.37;19.33;;;6.70;99.90;;;;;;4979577;28;20191;-75
2022/01/23 05:02:45;;;;;;;31.37;20.30;;;6.80;99.90;;;;;;5002887;28;20205;-75
2022/01/23 05:05:08;;;;;;;31.10;20.20;;;6.70;99.90;;;;;;4987810;28;20539;-75
2022/01/23 05:07:55;;;;;;;30.47;21.67;;;6.90;99.90;;;;;;4989395;28;20247;-75
2022/01/23 05:10:23;;;;;;;32.57;22.20;;;6.80;99.90;;;;;;4988561;28;20562;-75
2022/01/23 05:13:10;;;;;;;33.93;21.67;;;6.50;99.90;;;;;;4993568;28;20220;-75
2022/01/23 05:15:38;;;;;;;32.40;21.83;;;6.30;99.90;;;;;;5007126;28;20199;-75
2022/01/23 05:18:06;;;;;;;31.47;20.73;;;6.50;99.90;;;;;;5006990;28;20241;-75
2022/01/23 05:20:34;;;;;;;36.37;22.97;;;6.40;99.90;;;;;;4991295;28;20219;-75
2022/01/23 05:23:05;;;;;;;34.23;22.03;;;6.20;99.90;;;;;;4993924;28;20200;-75
2022/01/23 05:25:36;;;;;;;33.57;22.80;;;6.20;99.90;;;;;;4986684;28;20200;-75
2022/01/23 05:28:03;;;;;;;38.03;25.40;;;6.10;99.90;;;;;;5009857;28;20235;-75
2022/01/23 05:30:31;;;;;;;35.93;24.03;;;6.30;99.90;;;;;;4985209;28;20726;-75
2022/01/23 05:33:00;;;;;;;40.27;25.50;;;6.20;99.90;;;;;;4994207;28;20233;-75
2022/01/23 05:35:30;;;;;;;40.13;25.80;;;6.00;99.90;;;;;;4994662;28;20206;-75
2022/01/23 05:37:58;;;;;;;39.17;24.73;;;6.00;99.90;;;;;;4995449;28;20219;-75
2022/01/23 05:40:29;;;;;;;40.43;25.57;;;6.00;99.90;;;;;;5002307;28;20216;-76
2022/01/23 05:42:57;;;;;;;37.83;23.97;;;5.90;99.90;;;;;;4993990;28;20280;-75
2022/01/23 05:49:13;;;;;;;42.80;24.90;;;5.90;99.90;;;;;;5001911;28;20521;-75
2022/01/23 05:52:10;;;;;;;40.00;25.60;;;5.90;99.90;;;;;;4994898;28;20198;-75
2022/01/23 05:54:58;;;;;;;47.13;28.60;;;5.90;99.90;;;;;;4994772;28;20203;-75
2022/01/23 05:57:55;;;;;;;41.40;25.03;;;5.90;99.90;;;;;;4989976;28;20705;-75
2022/01/23 06:00:33;;;;;;;44.40;28.17;;;6.10;99.90;;;;;;5010261;28;20204;-75
2022/01/23 06:03:24;;;;;;;45.50;27.33;;;6.00;99.90;;;;;;5007693;28;20582;-75
2022/01/23 06:06:11;;;;;;;47.17;29.30;;;6.00;99.90;;;;;;4994271;28;20206;-75
2022/01/23 06:08:40;;;;;;;49.20;30.53;;;5.90;99.90;;;;;;5007884;28;20238;-75
2022/01/23 06:11:08;;;;;;;46.37;26.93;;;5.90;99.90;;;;;;4992427;28;20211;-75
2022/01/23 06:13:41;;;;;;;44.17;28.07;;;5.90;99.90;;;;;;4993830;28;20222;-75
2022/01/23 06:16:10;;;;;;;49.87;29.37;;;5.90;99.90;;;;;;5004277;28;20212;-75
2022/01/23 06:18:41;;;;;;;50.13;30.67;;;5.80;99.90;;;;;;4990639;28;20218;-75
2022/01/23 06:21:27;;;;;;;46.00;27.67;;;5.90;99.90;;;;;;4995469;28;20198;-75
2022/01/23 06:24:03;;;;;;;50.63;29.57;;;6.10;99.90;;;;;;5001640;28;20202;-75
2022/01/23 06:26:54;;;;;;;45.13;27.93;;;6.20;99.90;;;;;;4989618;28;20207;-75
2022/01/23 06:29:24;;;;;;;47.63;28.67;;;6.10;99.90;;;;;;4988924;28;20197;-75
2022/01/23 06:31:53;;;;;;;47.43;29.13;;;6.10;99.90;;;;;;5004134;28;20204;-75
2022/01/23 06:34:22;;;;;;;46.47;29.27;;;6.20;99.90;;;;;;4992091;28;20219;-75
2022/01/23 06:36:52;;;;;;;46.77;29.23;;;6.30;99.90;;;;;;4989401;28;20207;-75
2022/01/23 06:39:36;;;;;;;46.87;29.00;;;6.20;99.90;;;;;;4990551;28;20204;-75
2022/01/23 06:42:05;;;;;;;47.30;28.70;;;6.20;99.90;;;;;;4996863;28;20218;-75
2022/01/23 06:44:57;;;;;;;51.27;31.00;;;6.30;99.90;;;;;;4994919;28;20569;-75
2022/01/23 06:47:25;;;;;;;53.43;31.30;;;6.40;99.90;;;;;;5004837;28;20233;-75
2022/01/23 06:49:53;;;;;;;47.90;31.23;;;6.50;99.90;;;;;;5004065;28;20201;-75
2022/01/23 06:52:21;;;;;;;46.37;29.73;;;6.50;99.90;;;;;;4988968;28;20739;-75
2022/01/23 06:54:55;;;;;;;46.90;30.43;;;6.60;99.90;;;;;;4986221;28;20678;-75
2022/01/23 06:57:24;;;;;;;46.47;30.40;;;6.60;99.90;;;;;;4992546;28;20686;-74
2022/01/23 06:59:54;;;;;;;49.40;31.43;;;6.50;99.90;;;;;;5008905;28;20710;-74
2022/01/23 07:02:57;;;;;;;46.50;29.30;;;6.50;99.90;;;;;;4995490;28;20200;-74
2022/01/23 07:06:13;;;;;;;48.70;29.93;;;6.30;99.90;;;;;;5008890;28;20196;-74
2022/01/23 07:08:59;;;;;;;48.23;29.73;;;6.50;99.90;;;;;;4999722;28;20216;-74
2022/01/23 07:12:07;;;;;;;50.80;29.73;;;6.40;99.90;;;;;;4992253;28;20626;-74
2022/01/23 07:15:07;;;;;;;44.10;28.20;;;6.40;99.90;;;;;;4985273;28;20231;-74
2022/01/23 07:18:12;;;;;;;48.10;29.97;;;6.40;99.90;;;;;;4992336;28;20224;-74
2022/01/23 07:20:47;;;;;;;48.10;31.00;;;6.50;99.90;;;;;;4994707;28;20211;-74
2022/01/23 07:23:25;;;;;;;52.83;31.63;;;6.60;99.90;;;;;;4988435;28;20192;-74
2022/01/23 07:25:55;;;;;;;52.50;33.40;;;6.60;99.90;;;;;;4999722;28;20206;-74
2022/01/23 07:28:34;;;;;;;49.73;32.20;;;6.60;99.90;;;;;;4980807;28;20758;-74
2022/01/23 07:31:42;;;;;;;51.53;31.30;;;6.60;99.90;;;;;;4981536;28;20204;-74
2022/01/23 07:34:18;;;;;;;50.00;30.33;;;6.60;99.90;;;;;;4990112;28;20219;-74
2022/01/23 07:36:45;;;;;;;47.73;31.27;;;6.70;99.90;;;;;;4991773;28;20195;-74
2022/01/23 07:39:50;;;;;;;52.13;31.43;;;6.70;99.90;;;;;;4991473;28;20650;-74
2022/01/23 07:42:24;;;;;;;58.33;33.13;;;6.70;99.90;;;;;;4996368;28;20263;-74
2022/01/23 07:45:00;;;;;;;54.57;32.10;;;6.70;99.90;;;;;;4998495;28;20206;-75
2022/01/23 07:47:56;;;;;;;49.60;31.10;;;6.60;99.90;;;;;;4996535;28;20228;-74
2022/01/23 07:50:44;;;;;;;57.97;34.50;;;6.70;99.90;;;;;;4986774;28;20200;-74
2022/01/23 07:53:32;;;;;;;51.97;32.70;;;6.60;99.90;;;;;;4993412;28;20200;-74
2022/01/23 07:56:26;;;;;;;50.57;33.50;;;6.70;99.90;;;;;;4990186;28;20562;-74
2022/01/23 07:59:13;;;;;;;53.27;33.20;;;6.60;99.90;;;;;;4991626;28;20208;-74
2022/01/23 08:01:53;;;;;;;52.67;30.83;;;6.40;99.90;;;;;;5008609;28;20662;-74
2022/01/23 08:04:57;;;;;;;51.97;31.40;;;6.40;99.90;;;;;;4992120;28;20755;-74
2022/01/23 08:08:20;;;;;;;60.17;33.23;;;6.60;99.90;;;;;;4971357;28;20705;-74
2022/01/23 08:11:20;;;;;;;56.57;31.67;;;6.70;99.90;;;;;;4986654;28;20203;-74
2022/01/23 08:13:47;;;;;;;59.60;34.73;;;6.70;99.90;;;;;;4993437;28;20686;-74
2022/01/23 08:16:15;;;;;;;58.97;33.53;;;6.60;99.90;;;;;;4992269;28;20204;-74
2022/01/23 08:18:42;;;;;;;53.70;33.13;;;6.70;99.90;;;;;;5004015;28;20220;-75
2022/01/23 08:21:11;;;;;;;50.00;32.03;;;6.70;99.90;;;;;;4991948;28;20200;-75
2022/01/23 08:23:39;;;;;;;49.53;31.20;;;6.70;99.90;;;;;;4991455;28;20197;-75
2022/01/23 08:26:06;;;;;;;56.37;32.00;;;6.60;99.90;;;;;;4991406;28;20215;-75
2022/01/23 08:28:34;;;;;;;52.73;33.67;;;6.60;99.90;;;;;;4990744;28;20581;-75
2022/01/23 08:31:01;;;;;;;53.73;32.17;;;6.60;99.90;;;;;;4991947;28;20196;-75
2022/01/23 08:33:28;;;;;;;59.30;33.27;;;6.50;99.90;;;;;;5008304;28;20208;-75
2022/01/23 08:35:57;;;;;;;55.47;33.33;;;6.50;99.90;;;;;;4996156;28;20224;-75
2022/01/23 08:38:26;;;;;;;52.53;32.80;;;6.60;99.90;;;;;;4991417;28;20690;-75
2022/01/23 08:43:41;;;;;;;50.97;32.20;;;6.70;99.90;;;;;;4990952;28;20192;-75
2022/01/23 08:46:09;;;;;;;55.40;33.07;;;6.70;99.90;;;;;;5008160;28;20560;-75
2022/01/23 08:48:37;;;;;;;54.80;33.40;;;6.70;99.90;;;;;;5006860;28;20229;-75
2022/01/23 08:51:04;;;;;;;55.00;32.70;;;6.80;99.90;;;;;;5008220;28;20208;-75
2022/01/23 08:53:33;;;;;;;53.87;31.53;;;6.80;99.90;;;;;;5008205;28;20204;-75
2022/01/23 08:56:08;;;;;;;53.10;31.80;;;6.80;99.90;;;;;;4991745;28;20223;-75
2022/01/23 08:58:36;;;;;;;46.90;29.80;;;6.80;99.90;;;;;;4995306;28;20609;-75
2022/01/23 09:01:03;;;;;;;53.43;29.53;;;6.80;99.90;;;;;;4991493;28;20201;-75
2022/01/23 09:03:31;;;;;;;45.40;29.07;;;6.80;99.90;;;;;;4989408;28;20200;-75
2022/01/23 09:05:58;;;;;;;45.53;28.90;;;6.60;99.90;;;;;;4995127;28;20200;-75
2022/01/23 09:08:25;;;;;;;44.20;29.50;;;6.50;99.90;;;;;;4995537;28;20230;-75
2022/01/23 09:11:09;;;;;;;50.97;28.97;;;6.50;99.90;;;;;;4995310;28;20278;-75
2022/01/23 09:13:53;;;;;;;49.03;28.43;;;6.40;99.90;;;;;;5007024;28;20221;-75
2022/01/23 09:16:20;;;;;;;49.97;29.30;;;6.30;99.90;;;;;;4999238;28;20212;-75
2022/01/23 09:18:48;;;;;;;48.83;29.90;;;6.40;99.90;;;;;;4995153;28;20583;-75
2022/01/23 09:21:15;;;;;;;52.07;31.40;;;6.60;99.90;;;;;;5003312;28;20266;-75
2022/01/23 09:23:42;;;;;;;48.37;28.67;;;6.70;99.90;;;;;;4996543;28;20200;-75
2022/01/23 09:26:24;;;;;;;42.77;27.37;;;6.80;99.90;;;;;;4991000;28;20191;-76
2022/01/23 09:28:55;;;;;;;44.87;28.57;;;6.90;99.90;;;;;;4992722;28;20209;-76
2022/01/23 09:31:31;;;;;;;44.10;27.47;;;6.80;99.90;;;;;;4988618;28;20212;-76
2022/01/23 09:34:09;;;;;;;46.10;28.30;;;6.80;99.90;;;;;;5001125;28;20204;-76
2022/01/23 09:36:37;;;;;;;41.93;27.20;;;6.80;99.90;;;;;;4993274;28;20220;-76
2022/01/23 09:39:04;;;;;;;46.97;29.60;;;6.80;99.90;;;;;;4984357;28;20193;-76
2022/01/23 09:41:36;;;;;;;53.23;32.07;;;6.70;99.90;;;;;;4990257;28;20215;-75
2022/01/23 09:44:22;;;;;;;50.60;31.07;;;6.70;99.90;;;;;;4984364;28;20207;-75
2022/01/23 09:46:49;;;;;;;56.13;33.10;;;6.50;99.90;;;;;;5004318;28;20211;-75
2022/01/23 09:49:18;;;;;;;50.73;32.10;;;6.50;99.90;;;;;;4994629;28;20554;-76
2022/01/23 09:51:49;;;;;;;55.60;33.20;;;6.60;99.90;;;;;;4994757;28;20204;-75
2022/01/23 09:54:19;;;;;;;49.60;32.00;;;6.80;99.90;;;;;;4992116;28;20208;-76
2022/01/23 09:56:48;;;;;;;55.20;32.83;;;6.80;99.90;;;;;;4989845;28;20238;-76
2022/01/23 09:59:16;;;;;;;52.33;32.07;;;7.00;99.90;;;;;;4992592;28;20204;-76
2022/01/23 10:01:45;;;;;;;60.73;33.60;;;6.90;99.90;;;;;;4989125;28;20203;-75
2022/01/23 10:04:30;;;;;;;57.40;32.97;;;6.70;99.90;;;;;;5003076;28;20219;-75
2022/01/23 10:06:58;;;;;;;55.77;32.23;;;6.80;99.90;;;;;;4995210;28;20525;-76
2022/01/23 10:09:27;;;;;;;58.07;31.60;;;6.90;99.90;;;;;;4993058;28;20204;-75
2022/01/23 10:11:56;;;;;;;57.90;33.93;;;7.00;99.90;;;;;;4994871;28;20195;-75
2022/01/23 10:14:24;;;;;;;54.77;32.53;;;7.10;99.90;;;;;;4988084;28;20211;-75
2022/01/23 10:16:52;;;;;;;55.20;32.13;;;7.10;99.90;;;;;;4984905;28;20217;-75
2022/01/23 10:19:19;;;;;;;54.23;31.00;;;7.10;99.90;;;;;;4992009;28;20200;-75
2022/01/23 10:21:47;;;;;;;53.63;33.47;;;7.10;99.90;;;;;;4992027;28;20208;-75
2022/01/23 10:24:15;;;;;;;51.80;30.77;;;7.20;99.90;;;;;;5007433;28;20207;-75
2022/01/23 10:26:46;;;;;;;48.47;30.57;;;7.10;99.90;;;;;;4991748;28;20196;-75
2022/01/23 10:29:21;;;;;;;54.57;31.70;;;7.10;99.90;;;;;;4994937;28;20727;-75
2022/01/23 10:32:04;;;;;;;52.90;31.97;;;7.10;99.90;;;;;;4991703;28;20205;-75
2022/01/23 10:34:43;;;;;;;49.97;31.47;;;7.00;99.90;;;;;;5008280;28;20279;-75
2022/01/23 10:37:12;;;;;;;49.40;30.30;;;6.90;99.90;;;;;;5004916;28;20231;-75
2022/01/23 10:39:45;;;;;;;48.47;30.70;;;6.90;99.90;;;;;;4985690;28;20219;-75
2022/01/23 10:42:50;;;;;;;50.97;30.53;;;7.00;99.90;;;;;;5008370;28;20227;-75
2022/01/23 10:48:35;;;;;;;46.47;28.40;;;7.10;99.90;;;;;;4973020;28;20228;-75
2022/01/23 10:51:30;;;;;;;47.80;28.10;;;7.00;99.90;;;;;;4980592;28;20203;-75
2022/01/23 10:54:07;;;;;;;44.00;27.23;;;7.30;99.90;;;;;;4957236;28;20690;-75
2022/01/23 10:56:39;;;;;;;48.80;28.67;;;7.50;99.90;;;;;;5004173;28;20219;-75
2022/01/23 10:59:09;;;;;;;45.23;26.83;;;7.40;99.90;;;;;;4990329;28;20196;-75
2022/01/23 11:01:38;;;;;;;48.57;29.27;;;7.50;99.90;;;;;;4991728;28;20207;-75
2022/01/23 11:04:21;;;;;;;50.60;28.87;;;7.50;99.90;;;;;;4991268;28;20196;-75
2022/01/23 11:06:54;;;;;;;45.37;27.00;;;7.40;99.90;;;;;;4989380;28;20196;-75
2022/01/23 11:09:30;;;;;;;45.43;27.03;;;7.40;99.90;;;;;;4992105;28;20200;-75
2022/01/23 11:12:30;;;;;;;50.90;28.87;;;7.30;99.90;;;;;;4991599;28;20210;-75
2022/01/23 11:17:52;;;;;;;48.70;29.80;;;7.30;99.90;;;;;;4994442;28;20228;-75
2022/01/23 11:20:36;;;;;;;47.20;28.47;;;7.00;99.90;;;;;;4989896;28;20211;-75
2022/01/23 11:23:15;;;;;;;48.03;28.27;;;7.00;99.90;;;;;;4993196;28;20218;-75
2022/01/23 11:25:45;;;;;;;44.43;25.37;;;7.20;99.90;;;;;;4987770;28;20192;-75
2022/01/23 11:28:13;;;;;;;43.70;27.90;;;7.20;99.90;;;;;;4991479;28;20220;-75
2022/01/23 11:30:43;;;;;;;43.93;27.10;;;7.30;99.90;;;;;;5003788;28;20208;-75
2022/01/23 11:33:14;;;;;;;42.20;26.77;;;7.20;99.90;;;;;;4991662;28;20212;-75
2022/01/23 11:35:41;;;;;;;42.00;26.67;;;7.10;99.90;;;;;;4990163;28;20208;-75
2022/01/23 11:38:13;;;;;;;37.43;24.47;;;7.20;99.90;;;;;;4990360;28;20229;-74
2022/01/23 11:55:05;;;;;;;41.57;23.33;;;7.80;99.90;;;;;;4998220;28;20208;-75
2022/01/23 11:57:44;;;;;;;41.90;26.27;;;7.80;99.90;;;;;;4985338;28;20231;-75
2022/01/23 12:00:20;;;;;;;39.57;25.90;;;7.90;99.90;;;;;;4989412;28;20203;-74
2022/01/23 12:03:12;;;;;;;40.23;26.37;;;7.90;99.90;;;;;;4996003;28;20690;-75
2022/01/23 12:06:13;;;;;;;39.80;26.97;;;7.80;99.90;;;;;;5064543;27;20524;-74
2022/01/23 12:08:44;;;;;;;37.33;26.93;;;7.90;99.90;;;;;;5075630;28;20225;-75
2022/01/23 12:11:41;;;;;;;35.30;24.17;;;7.90;99.90;;;;;;5064916;28;20198;-75
2022/01/23 12:17:17;;;;;;;38.47;24.77;;;7.90;99.90;;;;;;5066546;28;20201;-75
2022/01/23 12:19:53;;;;;;;36.93;24.57;;;8.00;99.90;;;;;;5066478;28;20263;-75
2022/01/23 12:22:45;;;;;;;34.07;24.13;;;7.90;99.90;;;;;;5059427;28;20208;-75
2022/01/23 12:25:27;;;;;;;32.40;22.00;;;7.80;99.90;;;;;;5059395;28;20205;-74
2022/01/23 12:28:10;;;;;;;33.20;22.83;;;7.60;99.90;;;;;;5064675;28;20213;-75
2022/01/23 12:30:38;;;;;;;33.57;22.50;;;7.50;99.90;;;;;;5067113;28;20197;-74
2022/01/23 12:33:37;;;;;;;36.97;23.80;;;7.80;99.90;;;;;;5066867;28;20201;-77
2022/01/23 12:36:08;;;;;;;32.40;22.03;;;7.90;99.90;;;;;;5050103;28;20201;-75
2022/01/23 12:38:42;;;;;;;33.77;22.17;;;7.90;99.90;;;;;;5055887;28;20234;-75
2022/01/23 12:41:23;;;;;;;35.93;23.23;;;7.90;99.90;;;;;;5061656;28;20682;-74
2022/01/23 12:43:58;;;;;;;31.00;22.00;;;7.90;99.90;;;;;;5065461;28;20213;-74
2022/01/23 12:46:29;;;;;;;35.40;23.67;;;7.90;99.90;;;;;;5067968;28;20182;-74
2022/01/23 12:48:59;;;;;;;33.53;22.20;;;7.90;99.90;;;;;;5067902;28;20221;-74
2022/01/23 12:51:41;;;;;;;31.03;21.20;;;7.90;99.90;;;;;;5060040;28;20722;-74
2022/01/23 12:54:50;;;;;;;32.90;21.80;;;7.80;99.90;;;;;;5066635;28;20186;-74
2022/01/23 12:57:19;;;;;;;32.40;21.53;;;7.80;99.90;;;;;;5066504;28;20228;-74
2022/01/23 12:59:52;;;;;;;33.87;22.37;;;7.80;99.90;;;;;;5071451;28;20212;-74
2022/01/23 13:02:20;;;;;;;31.23;21.30;;;7.70;99.90;;;;;;5058380;28;20202;-74
2022/01/23 13:04:51;;;;;;;31.03;21.90;;;7.70;99.90;;;;;;5061093;28;20222;-74
2022/01/23 13:07:39;;;;;;;29.93;20.97;;;7.70;99.90;;;;;;5057754;28;20240;-74
2022/01/23 13:10:25;;;;;;;32.07;20.87;;;7.80;99.90;;;;;;5065441;28;20206;-74
2022/01/23 13:13:05;;;;;;;35.90;24.30;;;7.80;99.90;;;;;;5061588;28;20194;-75
2022/01/23 13:18:39;;;;;;;37.13;25.67;;;7.90;99.90;;;;;;5045492;28;20728;-75
2022/01/23 13:32:33;;;;;;;37.67;25.73;;;7.90;99.90;;;;;;5052965;28;20190;-75
2022/01/23 13:35:06;;;;;;;36.23;25.00;;;7.90;99.90;;;;;;5047391;28;20202;-75
2022/01/23 13:37:36;;;;;;;34.43;24.20;;;7.80;99.90;;;;;;5040316;28;20222;-75
2022/01/23 13:40:08;;;;;;;35.37;23.33;;;7.90;99.90;;;;;;5046316;28;20561;-75
2022/01/23 13:42:55;;;;;;;37.07;24.47;;;7.90;99.90;;;;;;5052277;28;20205;-75
2022/01/23 13:52:38;;;;;;;34.57;22.27;;;7.50;99.90;;;;;;4974796;28;20697;-75
2022/01/23 13:58:20;;;;;;;31.47;21.30;;;7.60;99.90;;;;;;5043731;28;20206;-75
2022/01/23 14:00:58;;;;;;;33.43;22.53;;;7.90;99.90;;;;;;5042710;28;20210;-75
2022/01/23 14:03:26;;;;;;;34.83;22.47;;;8.10;99.90;;;;;;5045688;28;20194;-75
2022/01/23 14:05:53;;;;;;;32.90;21.67;;;8.20;99.90;;;;;;5042518;28;20221;-75
2022/01/23 14:08:20;;;;;;;32.00;21.23;;;8.00;99.90;;;;;;5046927;28;20218;-75
2022/01/23 14:10:53;;;;;;;29.97;21.10;;;8.00;99.90;;;;;;5045861;28;20207;-75
2022/01/23 14:13:26;;;;;;;35.23;22.67;;;7.90;99.90;;;;;;5054447;28;20202;-75
2022/01/23 14:15:56;;;;;;;34.03;21.83;;;7.90;99.90;;;;;;5049226;28;20190;-75
2022/01/23 14:18:26;;;;;;;32.80;21.43;;;7.90;99.90;;;;;;5052025;28;20214;-75
2022/01/23 14:20:59;;;;;;;31.17;21.87;;;7.90;99.90;;;;;;5043691;28;20199;-75
2022/01/23 14:23:27;;;;;;;28.00;19.97;;;7.90;99.90;;;;;;5049230;28;20202;-75
2022/01/23 14:25:56;;;;;;;30.57;21.67;;;8.00;99.90;;;;;;5044695;28;20226;-75
2022/01/23 14:28:28;;;;;;;31.70;21.37;;;8.00;99.90;;;;;;5047447;28;20218;-75
2022/01/23 14:31:00;;;;;;;35.43;24.13;;;7.90;99.90;;;;;;5038396;28;20198;-75
2022/01/23 14:33:36;;;;;;;31.33;22.73;;;7.90;99.90;;;;;;5047778;28;20203;-75
2022/01/23 14:36:14;;;;;;;32.57;22.97;;;8.00;99.90;;;;;;5045644;28;20588;-75
2022/01/23 14:38:54;;;;;;;34.93;22.80;;;7.90;99.90;;;;;;5051556;28;20220;-75
2022/01/23 14:41:23;;;;;;;34.53;22.47;;;7.90;99.90;;;;;;5049624;28;20201;-76
2022/01/23 14:43:54;;;;;;;31.80;22.00;;;7.90;99.90;;;;;;5048041;28;20202;-76
2022/01/23 14:46:22;;;;;;;31.17;22.13;;;7.90;99.90;;;;;;5039071;28;20214;-76
2022/01/23 14:49:10;;;;;;;25.07;18.73;;;7.80;99.90;;;;;;5050008;28;20226;-78
2022/01/23 14:51:39;;;;;;;24.00;17.63;;;8.20;99.90;;;;;;5045816;28;20210;-79
2022/01/23 14:54:06;;;;;;;27.33;20.47;;;8.70;99.90;;;;;;5047883;28;20211;-78
2022/01/23 14:56:37;;;;;;;26.43;20.20;;;8.70;99.90;;;;;;5048501;28;20198;-78
2022/01/23 14:59:09;;;;;;;26.93;19.23;;;8.70;99.90;;;;;;5047801;28;20688;-77
2022/01/23 15:01:37;;;;;;;32.27;22.43;;;9.00;99.90;;;;;;5046571;28;20213;-76
2022/01/23 15:04:08;;;;;;;31.93;22.50;;;8.50;99.90;;;;;;5043193;28;20222;-76
2022/01/23 15:06:36;;;;;;;32.40;23.10;;;8.20;99.90;;;;;;5047622;28;20214;-75
2022/01/23 15:09:12;;;;;;;32.17;22.80;;;8.00;99.90;;;;;;5048139;28;20214;-75
2022/01/23 15:11:55;;;;;;;32.43;22.83;;;7.90;99.90;;;;;;5045196;28;20194;-76
2022/01/23 15:14:24;;;;;;;34.07;22.73;;;7.80;99.90;;;;;;5044763;28;20529;-76
2022/01/23 15:16:51;;;;;;;33.60;22.60;;;7.90;99.90;;;;;;5044603;28;20195;-76
2022/01/23 15:19:19;;;;;;;34.03;22.67;;;7.80;99.90;;;;;;5043475;28;20205;-75
2022/01/23 15:21:46;;;;;;;32.07;21.80;;;7.80;99.90;;;;;;5042392;28;20660;-75
2022/01/23 15:24:13;;;;;;;32.83;23.33;;;8.00;99.90;;;;;;5049688;28;20202;-75
2022/01/23 15:26:43;;;;;;;31.63;22.03;;;8.00;99.90;;;;;;5043871;28;20224;-76
2022/01/23 15:29:13;;;;;;;29.30;21.63;;;7.80;99.90;;;;;;5040766;28;20225;-76
2022/01/23 15:31:47;;;;;;;30.00;19.87;;;7.80;99.90;;;;;;5042224;28;20191;-76
2022/01/23 15:34:15;;;;;;;30.63;21.60;;;7.80;99.90;;;;;;5050100;28;20190;-76
2022/01/23 15:36:50;;;;;;;24.87;16.93;;;7.90;99.90;;;;;;5033393;28;20222;-76
2022/01/23 15:39:26;;;;;;;27.77;20.10;;;7.90;99.90;;;;;;5042799;28;20197;-76
2022/01/23 15:41:53;;;;;;;27.33;19.57;;;7.80;99.90;;;;;;5046017;28;20198;-75
2022/01/23 15:44:21;;;;;;;29.00;20.20;;;7.80;99.90;;;;;;5049473;28;20206;-75